This is the latest recevied weather packets stored in our database for station/object EA5GTE-12. If no packets are shown the sender has not sent any weather packets the latest 10 day(s).
| Time | Temp. | Humidity | Pressure | Rain* | Wind** | Luminosity | Snow |
|---|---|---|---|---|---|---|---|
| 1787737097 | 32.78° C | 25% | 936.3 hPa | - | - | - | - |
| 1787736197 | 31.67° C | 28% | 936.5 hPa | - | - | - | - |
| 1787735297 | 31.11° C | 28% | 936.8 hPa | - | - | - | - |
| 1787734397 | 28.89° C | 32% | 936.8 hPa | - | - | - | - |
| 1787733497 | 27.22° C | 39% | 936.9 hPa | - | - | - | - |
| 1787732597 | 25° C | 46% | 936.8 hPa | - | - | - | - |
| 1787731697 | 27.78° C | 40% | 936.7 hPa | - | - | - | - |
| 1787730797 | 24.44° C | 55% | 936.6 hPa | - | - | - | - |
| 1787729897 | 23.33° C | 64% | 936.7 hPa | - | - | - | - |
| 1787728997 | 22.78° C | 64% | 936.6 hPa | - | - | - | - |
| 1787728097 | 22.78° C | 68% | 936.6 hPa | - | - | - | - |
| 1787727197 | 22.22° C | 76% | 936.6 hPa | - | - | - | - |
| 1787726297 | 21.11° C | 88% | 936.7 hPa | - | - | - | - |
| 1787725397 | 21.67° C | 79% | 936.4 hPa | - | - | - | - |
| 1787724496 | 20.56° C | 83% | 936.4 hPa | - | - | - | - |
| 1787723596 | 21.11° C | 77% | 936 hPa | - | - | - | - |
| 1787722696 | 21.11° C | 76% | 936 hPa | - | - | - | - |
| 1787721796 | 20.56° C | 83% | 935.8 hPa | - | - | - | - |
| 1787720896 | 20° C | 88% | 935.9 hPa | - | - | - | - |
| 1787719996 | 20° C | 90% | 936.3 hPa | - | - | - | - |
| 1787719096 | 19.44° C | 93% | 936.2 hPa | - | - | - | - |
| 1787717296 | 21.11° C | 79% | 935.7 hPa | - | - | - | - |
| 1787716396 | 20.56° C | 81% | 935.6 hPa | - | - | - | - |
| 1787715496 | 20.56° C | 81% | 936.8 hPa | - | - | - | - |
| 1787714596 | 20.56° C | 82% | 935.8 hPa | - | - | - | - |
* Rain since midnight (hover to see other rain measurements)
** Current wind speed in m/s (hover to see current wind gust speed)